This is the latest recevied weather packets stored in our database for station/object WMKC. If no packets are shown the sender has not sent any weather packets the latest 10 day(s).
| Time | Temp. | Humidity | Pressure | Rain* | Wind** | Luminosity | Snow |
|---|---|---|---|---|---|---|---|
| 1788149689 | 89° F | 62% | 758.3 mmHg | - | - | - | - |
| 1788146089 | 87° F | 74% | 759.1 mmHg | - | - | - | - |
| 1788142490 | 86° F | 74% | 759.1 mmHg | - | - | - | - |
| 1788138907 | 82° F | 78% | 758.3 mmHg | - | - | - | - |
| 1788135290 | 77° F | 94% | 757.6 mmHg | - | - | - | - |
| 1788131689 | 77° F | 94% | 757.6 mmHg | - | - | - | - |
| 1788128090 | 77° F | 94% | 757.6 mmHg | - | - | - | - |
| 1788124495 | 77° F | 94% | 757.6 mmHg | - | - | - | - |
| 1788120902 | 77° F | 94% | 756.8 mmHg | - | - | - | - |
| 1788117289 | 77° F | 10% | - | - | - | - | - |
| 1788113689 | 78° F | 88% | 757.6 mmHg | - | - | - | - |
| 1788110095 | 80° F | 83% | 758.3 mmHg | - | - | - | - |
| 1788106500 | 80° F | 83% | 759.1 mmHg | - | - | - | - |
| 1788102888 | 80° F | 83% | 758.3 mmHg | - | - | - | - |
| 1788099288 | 78° F | 94% | 758.3 mmHg | - | - | - | - |
| 1788095694 | 78° F | 94% | 757.6 mmHg | - | - | - | - |
| 1788092099 | 78° F | 88% | 756.8 mmHg | - | - | - | - |
| 1788088488 | 82° F | 88% | 756.8 mmHg | - | - | - | - |
| 1788084888 | 87° F | 70% | 756.1 mmHg | - | - | - | - |
| 1788081294 | 87° F | 66% | 756.1 mmHg | - | - | - | - |
| 1788077699 | 89° F | 66% | 756.1 mmHg | - | - | - | - |
| 1788074088 | 91° F | 62% | 756.8 mmHg | - | - | - | - |
| 1788070487 | 89° F | 66% | 756.8 mmHg | - | - | - | - |
| 1788066894 | 91° F | 62% | 757.6 mmHg | - | - | - | - |
| 1788063287 | 89° F | 62% | 758.3 mmHg | - | - | - | - |
* Rain since midnight (hover to see other rain measurements)
** Current wind speed in m/s (hover to see current wind gust speed)